Terminal Aerodrome Forecast
Issued by NWS Duluth, MN

Home | Current Version | Previous Version | Text Only | Print | Product List | Glossary On
Versions: 1 2 3 4 5 6 7 8 9 10 11 12 13 14 15 16 17 18 19 20 21 22 23 24 25 26 27 28 29 30 31 32 33 34
000
FTUS43 KDLH 201600 AAB
TAFINL
TAF AMD
KINL 201601Z 2016/2112 29009KT 5SM BR OVC008
     FM201800 28008KT P6SM BKN012
     FM202000 27008KT P6SM BKN025
      TEMPO 2020/2022 SCT025
     FM210000 31005KT P6SM VCTS BKN035CB
      TEMPO 2101/2105 5SM -TSRA BKN020CB
     FM210500 32005KT P6SM VCSH BKN015
     FM210800 32005KT 5SM BR OVC008=

USA.gov is the U.S. government's official web portal to all federal, state and local government web resources and services.